Terminal Aerodrome Forecast
Issued by NWS

Current Version | Previous Version | Text Only | Print | Product List | Glossary On
Versions: 1 2 3 4 5 6 7 8 9 10 11 12 13 14 15 16 17 18 19 20 21 22 23 24 25 26 27
000
FTUS42 KRAH 252339
TAFRWI
TAF
KRWI 252339Z 2600/2624 22004KT P6SM FEW035 BKN120
      TEMPO 2600/2603 4SM -SHRA OVC015
     FM260300 VRB05KT P6SM BKN010
      TEMPO 2608/2612 3SM BR BKN005
     FM261300 24005KT P6SM SCT020
      TEMPO 2613/2615 BKN025=

USA.gov is the U.S. government's official web portal to all federal, state and local government web resources and services.